Details From KSDL - SCOTTSDALE
To KSEZ - Sedona
Flight Number -
Tags generated
Created
Modified
Stats Distance 74 nm / 137 km
Max Altitude 1,600 ft / 488 m
Waypoints 3
Social Downloads 3
Likes 0
Share VATSIM

Download

Looking for another format? Having issues loading an existing format? Contact us
Advertisement - Login to hide

Notes

Basic altitude profile: - Ascent Rate: 1000ft/min - Ascent Speed: 250kts - Cruise Altitude: 1600ft - Cruise Speed: 250kts - Descent Rate: 500ft/min - Descent Speed: 154kts Options: - Use NATs: yes - Use PACOTS: yes - Use low airways: yes - Use high airways: yes

Route

KSDL KNOBB KSEZ

ID Type Via Altitude Latitude Longitude Leg Dist Tot Dist Heading (true) Name
O KSDL APT - 0 ft / 0 m 33.62288˚ -111.91053˚ - 0 nm - SCOTTSDALE
KNOBB FIX - 1,600 ft / 488 m 33.69866˚ -111.90934˚ 4 nm 4 nm 1° / 1° -
O KSEZ APT - 0 ft / 0 m 34.84861˚ -111.78848˚ 69 nm 73 nm 5° / 5° Sedona

Altitude Profile

Advertisement - Login to hide

KSDL

Details ICAO KSDL (ZSY)
Name SCOTTSDALE
Region United States
Timezone America/Phoenix (UTC-7.0)
Stats Elevation 1,510 ft / 460 m (AMSL)
Location 33.622881° -111.910535°
Runways 1
Magnetic Variation 10.314° E

METAR

KSDL 112053Z 19004KT 10SM CLR 24/M11 A3019 RMK AO2 SLP206 T02391111 56026

Decode

TAF

TAF KSDL 111720Z 1118/1218 VRB05KT P6SM BKN250

Decode

Departure Runways

ID Width Length Bearing (true) Bearing (mag) Surface Threshold Offset Overrun Length
03 100 ft / 30 m 8,253 ft / 2,516 m 43.82° 33.51° Asphalt 740 ft / 226 m 0 ft / 0 m
21 100 ft / 30 m 8,253 ft / 2,516 m 223.83° 213.52° Asphalt 400 ft / 122 m 0 ft / 0 m

KSEZ

Details ICAO KSEZ (SDX)
Name Sedona
Region United States
Timezone America/Phoenix (UTC-7.0)
Stats Elevation 4,827 ft / 1,471 m (AMSL)
Location 34.848607° -111.788482°
Runways 1
Magnetic Variation 10.460° E

METAR

KSEZ 112055Z AUTO 19004KT 10SM CLR 17/M16 A3033 RMK AO2

Decode

TAF

TAF KSEZ 111722Z 1118/1218 06009KT P6SM BKN250 FM120300 05013G20KT P6SM BKN250

Decode

Destination Runways

ID Width Length Bearing (true) Bearing (mag) Surface Threshold Offset Overrun Length
03 100 ft / 30 m 5,130 ft / 1,564 m 45.63° 35.17° Asphalt 0 ft / 0 m 0 ft / 0 m
21 100 ft / 30 m 5,130 ft / 1,564 m 225.64° 215.18° Asphalt 0 ft / 0 m 0 ft / 0 m